sensor_id;sensor_type;location;lat;lon;timestamp;P1;durP1;ratioP1;P2;durP2;ratioP2
63046;SDS011;62025;39.238;9.126;2023-05-23T00:01:02;15.52;;;9.55;;
63046;SDS011;62025;39.238;9.126;2023-05-23T00:03:31;13.68;;;8.60;;
63046;SDS011;62025;39.238;9.126;2023-05-23T00:05:58;9.70;;;7.43;;
63046;SDS011;62025;39.238;9.126;2023-05-23T00:08:25;11.40;;;8.15;;
63046;SDS011;62025;39.238;9.126;2023-05-23T00:10:51;12.85;;;7.88;;
63046;SDS011;62025;39.238;9.126;2023-05-23T00:13:17;11.73;;;7.55;;
63046;SDS011;62025;39.238;9.126;2023-05-23T00:15:43;14.32;;;8.02;;
63046;SDS011;62025;39.238;9.126;2023-05-23T00:18:09;14.95;;;8.55;;
63046;SDS011;62025;39.238;9.126;2023-05-23T00:20:36;12.93;;;7.60;;
63046;SDS011;62025;39.238;9.126;2023-05-23T00:23:07;9.43;;;7.85;;
63046;SDS011;62025;39.238;9.126;2023-05-23T00:25:37;12.52;;;7.15;;
63046;SDS011;62025;39.238;9.126;2023-05-23T00:28:05;11.70;;;7.45;;
63046;SDS011;62025;39.238;9.126;2023-05-23T00:30:31;11.25;;;7.57;;
63046;SDS011;62025;39.238;9.126;2023-05-23T00:32:58;11.25;;;7.60;;
63046;SDS011;62025;39.238;9.126;2023-05-23T00:35:27;11.02;;;8.48;;
63046;SDS011;62025;39.238;9.126;2023-05-23T00:37:53;12.18;;;8.05;;
63046;SDS011;62025;39.238;9.126;2023-05-23T00:40:20;10.27;;;7.30;;
63046;SDS011;62025;39.238;9.126;2023-05-23T00:42:46;9.80;;;7.20;;
63046;SDS011;62025;39.238;9.126;2023-05-23T00:45:13;10.25;;;6.85;;
63046;SDS011;62025;39.238;9.126;2023-05-23T00:47:40;11.35;;;7.90;;
63046;SDS011;62025;39.238;9.126;2023-05-23T00:50:09;9.98;;;6.65;;
63046;SDS011;62025;39.238;9.126;2023-05-23T00:52:37;10.43;;;7.00;;
63046;SDS011;62025;39.238;9.126;2023-05-23T00:55:03;9.18;;;7.20;;
63046;SDS011;62025;39.238;9.126;2023-05-23T00:57:30;9.05;;;6.70;;
63046;SDS011;62025;39.238;9.126;2023-05-23T01:00:02;11.88;;;7.28;;
63046;SDS011;62025;39.238;9.126;2023-05-23T01:02:28;9.05;;;6.80;;
63046;SDS011;62025;39.238;9.126;2023-05-23T01:04:57;10.68;;;6.75;;
63046;SDS011;62025;39.238;9.126;2023-05-23T01:07:23;14.48;;;7.13;;
63046;SDS011;62025;39.238;9.126;2023-05-23T01:09:50;10.00;;;6.72;;
63046;SDS011;62025;39.238;9.126;2023-05-23T01:12:19;10.82;;;6.88;;
63046;SDS011;62025;39.238;9.126;2023-05-23T01:15:05;10.98;;;6.88;;
63046;SDS011;62025;39.238;9.126;2023-05-23T01:17:51;12.57;;;6.53;;
63046;SDS011;62025;39.238;9.126;2023-05-23T01:20:30;9.40;;;6.15;;
63046;SDS011;62025;39.238;9.126;2023-05-23T01:29:18;8.65;;;5.75;;
63046;SDS011;62025;39.238;9.126;2023-05-23T01:31:52;10.88;;;6.90;;
63046;SDS011;62025;39.238;9.126;2023-05-23T01:34:22;9.45;;;6.53;;
63046;SDS011;62025;39.238;9.126;2023-05-23T01:36:49;8.40;;;6.28;;
63046;SDS011;62025;39.238;9.126;2023-05-23T01:39:20;8.85;;;6.43;;
63046;SDS011;62025;39.238;9.126;2023-05-23T01:41:47;9.30;;;6.20;;
63046;SDS011;62025;39.238;9.126;2023-05-23T01:44:14;10.43;;;5.80;;
63046;SDS011;62025;39.238;9.126;2023-05-23T01:46:41;10.40;;;5.70;;
63046;SDS011;62025;39.238;9.126;2023-05-23T01:49:10;11.73;;;5.95;;
63046;SDS011;62025;39.238;9.126;2023-05-23T01:51:38;8.77;;;5.95;;
63046;SDS011;62025;39.238;9.126;2023-05-23T01:54:05;9.98;;;6.50;;
63046;SDS011;62025;39.238;9.126;2023-05-23T01:56:32;7.35;;;5.70;;
63046;SDS011;62025;39.238;9.126;2023-05-23T01:58:59;7.97;;;5.70;;
63046;SDS011;62025;39.238;9.126;2023-05-23T02:01:26;8.05;;;5.82;;
63046;SDS011;62025;39.238;9.126;2023-05-23T02:03:52;8.63;;;6.28;;
63046;SDS011;62025;39.238;9.126;2023-05-23T02:06:19;10.07;;;5.78;;
63046;SDS011;62025;39.238;9.126;2023-05-23T02:08:45;9.05;;;6.13;;
63046;SDS011;62025;39.238;9.126;2023-05-23T02:11:11;10.77;;;5.90;;
63046;SDS011;62025;39.238;9.126;2023-05-23T02:13:38;8.18;;;6.22;;
63046;SDS011;62025;39.238;9.126;2023-05-23T02:16:04;14.15;;;6.43;;
63046;SDS011;62025;39.238;9.126;2023-05-23T02:18:30;9.30;;;5.90;;
63046;SDS011;62025;39.238;9.126;2023-05-23T02:20:56;7.75;;;6.22;;
63046;SDS011;62025;39.238;9.126;2023-05-23T02:23:22;8.05;;;5.85;;
63046;SDS011;62025;39.238;9.126;2023-05-23T02:25:48;7.93;;;6.30;;
63046;SDS011;62025;39.238;9.126;2023-05-23T02:28:14;9.02;;;5.60;;
63046;SDS011;62025;39.238;9.126;2023-05-23T02:30:40;9.05;;;5.10;;
63046;SDS011;62025;39.238;9.126;2023-05-23T02:33:06;8.63;;;5.53;;
63046;SDS011;62025;39.238;9.126;2023-05-23T02:35:32;12.23;;;6.78;;
63046;SDS011;62025;39.238;9.126;2023-05-23T02:37:59;9.10;;;5.60;;
63046;SDS011;62025;39.238;9.126;2023-05-23T02:40:25;11.35;;;5.72;;
63046;SDS011;62025;39.238;9.126;2023-05-23T02:42:51;8.98;;;5.85;;
63046;SDS011;62025;39.238;9.126;2023-05-23T02:45:17;10.98;;;6.13;;
63046;SDS011;62025;39.238;9.126;2023-05-23T02:47:43;7.30;;;5.57;;
63046;SDS011;62025;39.238;9.126;2023-05-23T02:50:09;7.55;;;5.38;;
63046;SDS011;62025;39.238;9.126;2023-05-23T02:52:36;10.90;;;5.95;;
63046;SDS011;62025;39.238;9.126;2023-05-23T02:55:02;7.70;;;5.40;;
63046;SDS011;62025;39.238;9.126;2023-05-23T02:57:36;11.27;;;6.05;;
63046;SDS011;62025;39.238;9.126;2023-05-23T03:00:02;9.05;;;5.75;;
63046;SDS011;62025;39.238;9.126;2023-05-23T03:02:30;6.80;;;5.53;;
63046;SDS011;62025;39.238;9.126;2023-05-23T03:04:56;7.82;;;6.05;;
63046;SDS011;62025;39.238;9.126;2023-05-23T03:07:22;10.38;;;6.28;;
63046;SDS011;62025;39.238;9.126;2023-05-23T03:09:48;8.27;;;6.22;;
63046;SDS011;62025;39.238;9.126;2023-05-23T03:12:14;9.05;;;6.05;;
63046;SDS011;62025;39.238;9.126;2023-05-23T03:14:40;7.82;;;5.40;;
63046;SDS011;62025;39.238;9.126;2023-05-23T03:17:06;10.23;;;5.60;;
63046;SDS011;62025;39.238;9.126;2023-05-23T03:19:33;8.25;;;5.68;;
63046;SDS011;62025;39.238;9.126;2023-05-23T03:21:59;7.95;;;5.38;;
63046;SDS011;62025;39.238;9.126;2023-05-23T03:24:25;10.10;;;5.80;;
63046;SDS011;62025;39.238;9.126;2023-05-23T03:26:51;8.57;;;5.65;;
63046;SDS011;62025;39.238;9.126;2023-05-23T03:29:17;10.27;;;6.00;;
63046;SDS011;62025;39.238;9.126;2023-05-23T03:31:43;7.35;;;5.45;;
63046;SDS011;62025;39.238;9.126;2023-05-23T03:34:09;10.23;;;6.65;;
63046;SDS011;62025;39.238;9.126;2023-05-23T03:36:35;8.52;;;5.57;;
63046;SDS011;62025;39.238;9.126;2023-05-23T03:39:04;10.70;;;6.43;;
63046;SDS011;62025;39.238;9.126;2023-05-23T03:41:30;10.80;;;6.00;;
63046;SDS011;62025;39.238;9.126;2023-05-23T03:43:56;7.72;;;6.03;;
63046;SDS011;62025;39.238;9.126;2023-05-23T03:46:23;8.23;;;5.75;;
63046;SDS011;62025;39.238;9.126;2023-05-23T03:48:49;11.35;;;6.65;;
63046;SDS011;62025;39.238;9.126;2023-05-23T03:51:15;9.18;;;6.63;;
63046;SDS011;62025;39.238;9.126;2023-05-23T03:53:42;10.90;;;6.88;;
63046;SDS011;62025;39.238;9.126;2023-05-23T03:56:08;8.05;;;6.15;;
63046;SDS011;62025;39.238;9.126;2023-05-23T03:58:34;10.38;;;6.13;;
63046;SDS011;62025;39.238;9.126;2023-05-23T04:01:08;8.82;;;5.85;;
63046;SDS011;62025;39.238;9.126;2023-05-23T04:03:34;8.68;;;5.90;;
63046;SDS011;62025;39.238;9.126;2023-05-23T04:06:02;10.18;;;6.53;;
63046;SDS011;62025;39.238;9.126;2023-05-23T04:08:28;9.00;;;7.05;;
63046;SDS011;62025;39.238;9.126;2023-05-23T04:11:01;14.20;;;6.13;;
63046;SDS011;62025;39.238;9.126;2023-05-23T04:13:31;12.65;;;7.30;;
63046;SDS011;62025;39.238;9.126;2023-05-23T04:15:58;12.75;;;7.95;;
63046;SDS011;62025;39.238;9.126;2023-05-23T04:20:52;9.07;;;6.43;;
63046;SDS011;62025;39.238;9.126;2023-05-23T04:23:19;9.50;;;6.30;;
63046;SDS011;62025;39.238;9.126;2023-05-23T04:25:49;12.45;;;6.57;;
63046;SDS011;62025;39.238;9.126;2023-05-23T04:28:28;11.02;;;6.60;;
63046;SDS011;62025;39.238;9.126;2023-05-23T04:30:54;11.10;;;7.32;;
63046;SDS011;62025;39.238;9.126;2023-05-23T04:33:24;13.23;;;7.03;;
63046;SDS011;62025;39.238;9.126;2023-05-23T04:35:52;9.30;;;6.63;;
63046;SDS011;62025;39.238;9.126;2023-05-23T04:38:18;11.93;;;6.47;;
63046;SDS011;62025;39.238;9.126;2023-05-23T04:40:46;8.15;;;7.03;;
63046;SDS011;62025;39.238;9.126;2023-05-23T04:43:31;12.88;;;6.32;;
63046;SDS011;62025;39.238;9.126;2023-05-23T04:46:11;9.75;;;6.45;;
63046;SDS011;62025;39.238;9.126;2023-05-23T04:48:42;11.07;;;6.13;;
63046;SDS011;62025;39.238;9.126;2023-05-23T04:51:09;10.80;;;5.72;;
63046;SDS011;62025;39.238;9.126;2023-05-23T04:53:41;10.88;;;6.30;;
63046;SDS011;62025;39.238;9.126;2023-05-23T04:56:09;12.27;;;6.60;;
63046;SDS011;62025;39.238;9.126;2023-05-23T04:58:37;12.55;;;5.82;;
63046;SDS011;62025;39.238;9.126;2023-05-23T05:03:34;10.20;;;5.03;;
63046;SDS011;62025;39.238;9.126;2023-05-23T05:06:01;9.25;;;5.85;;
63046;SDS011;62025;39.238;9.126;2023-05-23T05:08:27;12.32;;;5.75;;
63046;SDS011;62025;39.238;9.126;2023-05-23T05:10:53;10.90;;;5.75;;
63046;SDS011;62025;39.238;9.126;2023-05-23T05:13:20;13.27;;;6.72;;
63046;SDS011;62025;39.238;9.126;2023-05-23T05:15:49;11.30;;;6.47;;
63046;SDS011;62025;39.238;9.126;2023-05-23T05:20:44;11.00;;;6.35;;
63046;SDS011;62025;39.238;9.126;2023-05-23T05:23:10;10.40;;;5.90;;
63046;SDS011;62025;39.238;9.126;2023-05-23T05:25:37;7.32;;;5.45;;
63046;SDS011;62025;39.238;9.126;2023-05-23T05:28:03;11.15;;;5.88;;
63046;SDS011;62025;39.238;9.126;2023-05-23T05:33:00;10.27;;;6.20;;
63046;SDS011;62025;39.238;9.126;2023-05-23T05:35:32;10.38;;;6.28;;
63046;SDS011;62025;39.238;9.126;2023-05-23T05:38:03;7.35;;;6.00;;
63046;SDS011;62025;39.238;9.126;2023-05-23T05:40:33;10.90;;;6.57;;
63046;SDS011;62025;39.238;9.126;2023-05-23T05:43:00;9.98;;;6.53;;
63046;SDS011;62025;39.238;9.126;2023-05-23T05:45:26;9.57;;;7.47;;
63046;SDS011;62025;39.238;9.126;2023-05-23T05:47:52;8.57;;;6.55;;
63046;SDS011;62025;39.238;9.126;2023-05-23T05:50:21;9.82;;;6.75;;
63046;SDS011;62025;39.238;9.126;2023-05-23T05:52:47;11.43;;;6.70;;
63046;SDS011;62025;39.238;9.126;2023-05-23T05:55:13;12.05;;;5.93;;
63046;SDS011;62025;39.238;9.126;2023-05-23T05:57:44;8.23;;;5.88;;
63046;SDS011;62025;39.238;9.126;2023-05-23T06:00:11;10.05;;;6.13;;
63046;SDS011;62025;39.238;9.126;2023-05-23T06:02:51;10.93;;;8.50;;
63046;SDS011;62025;39.238;9.126;2023-05-23T06:05:53;11.90;;;5.60;;
63046;SDS011;62025;39.238;9.126;2023-05-23T06:08:20;8.52;;;5.03;;
63046;SDS011;62025;39.238;9.126;2023-05-23T06:10:47;9.30;;;6.00;;
63046;SDS011;62025;39.238;9.126;2023-05-23T06:13:13;8.95;;;5.60;;
63046;SDS011;62025;39.238;9.126;2023-05-23T06:15:42;6.85;;;5.45;;
63046;SDS011;62025;39.238;9.126;2023-05-23T06:18:08;8.13;;;5.90;;
63046;SDS011;62025;39.238;9.126;2023-05-23T06:20:35;9.35;;;5.40;;
63046;SDS011;62025;39.238;9.126;2023-05-23T06:23:04;6.75;;;4.95;;
63046;SDS011;62025;39.238;9.126;2023-05-23T06:25:30;8.88;;;5.43;;
63046;SDS011;62025;39.238;9.126;2023-05-23T06:27:56;7.75;;;5.15;;
63046;SDS011;62025;39.238;9.126;2023-05-23T06:30:23;6.35;;;4.53;;
63046;SDS011;62025;39.238;9.126;2023-05-23T06:32:50;6.88;;;4.90;;
63046;SDS011;62025;39.238;9.126;2023-05-23T06:35:17;7.40;;;4.75;;
63046;SDS011;62025;39.238;9.126;2023-05-23T06:37:43;9.15;;;4.65;;
63046;SDS011;62025;39.238;9.126;2023-05-23T06:40:11;6.07;;;4.30;;
63046;SDS011;62025;39.238;9.126;2023-05-23T06:42:40;7.05;;;4.70;;
63046;SDS011;62025;39.238;9.126;2023-05-23T06:45:35;7.90;;;4.60;;
63046;SDS011;62025;39.238;9.126;2023-05-23T06:48:02;5.72;;;5.00;;
63046;SDS011;62025;39.238;9.126;2023-05-23T06:52:56;11.02;;;5.00;;
63046;SDS011;62025;39.238;9.126;2023-05-23T06:55:22;7.70;;;4.88;;
63046;SDS011;62025;39.238;9.126;2023-05-23T06:57:49;9.05;;;4.43;;
63046;SDS011;62025;39.238;9.126;2023-05-23T07:00:17;9.18;;;4.78;;
63046;SDS011;62025;39.238;9.126;2023-05-23T07:02:57;9.15;;;4.50;;
63046;SDS011;62025;39.238;9.126;2023-05-23T07:05:28;7.40;;;4.80;;
63046;SDS011;62025;39.238;9.126;2023-05-23T07:07:56;7.85;;;4.18;;
63046;SDS011;62025;39.238;9.126;2023-05-23T07:10:22;7.30;;;4.30;;
63046;SDS011;62025;39.238;9.126;2023-05-23T07:12:50;8.27;;;4.43;;
63046;SDS011;62025;39.238;9.126;2023-05-23T07:18:03;9.23;;;3.78;;
63046;SDS011;62025;39.238;9.126;2023-05-23T07:20:31;5.00;;;3.70;;
63046;SDS011;62025;39.238;9.126;2023-05-23T07:23:06;5.78;;;3.70;;
63046;SDS011;62025;39.238;9.126;2023-05-23T07:25:32;5.68;;;3.70;;
63046;SDS011;62025;39.238;9.126;2023-05-23T07:27:58;7.47;;;3.92;;
63046;SDS011;62025;39.238;9.126;2023-05-23T07:30:24;5.80;;;4.20;;
63046;SDS011;62025;39.238;9.126;2023-05-23T07:32:50;5.93;;;4.00;;
63046;SDS011;62025;39.238;9.126;2023-05-23T07:35:17;7.03;;;3.70;;
63046;SDS011;62025;39.238;9.126;2023-05-23T07:37:48;5.97;;;3.75;;
63046;SDS011;62025;39.238;9.126;2023-05-23T07:40:14;6.18;;;3.75;;
63046;SDS011;62025;39.238;9.126;2023-05-23T07:42:40;5.38;;;4.53;;
63046;SDS011;62025;39.238;9.126;2023-05-23T07:45:07;7.28;;;4.03;;
63046;SDS011;62025;39.238;9.126;2023-05-23T07:50:01;6.43;;;3.90;;
63046;SDS011;62025;39.238;9.126;2023-05-23T07:52:28;6.32;;;4.10;;
63046;SDS011;62025;39.238;9.126;2023-05-23T07:54:55;6.65;;;3.88;;
63046;SDS011;62025;39.238;9.126;2023-05-23T07:57:21;3.90;;;3.50;;
63046;SDS011;62025;39.238;9.126;2023-05-23T07:59:50;4.22;;;3.50;;
63046;SDS011;62025;39.238;9.126;2023-05-23T08:02:18;9.10;;;3.95;;
63046;SDS011;62025;39.238;9.126;2023-05-23T08:04:45;7.25;;;3.70;;
63046;SDS011;62025;39.238;9.126;2023-05-23T08:07:13;4.85;;;3.80;;
63046;SDS011;62025;39.238;9.126;2023-05-23T08:09:50;5.80;;;3.88;;
63046;SDS011;62025;39.238;9.126;2023-05-23T08:12:18;5.45;;;3.63;;
63046;SDS011;62025;39.238;9.126;2023-05-23T08:14:46;8.13;;;3.78;;
63046;SDS011;62025;39.238;9.126;2023-05-23T08:17:32;4.15;;;3.38;;
63046;SDS011;62025;39.238;9.126;2023-05-23T08:19:58;5.53;;;3.60;;
63046;SDS011;62025;39.238;9.126;2023-05-23T08:22:26;4.43;;;3.92;;
63046;SDS011;62025;39.238;9.126;2023-05-23T08:24:53;5.57;;;3.80;;
63046;SDS011;62025;39.238;9.126;2023-05-23T08:27:20;6.13;;;3.78;;
63046;SDS011;62025;39.238;9.126;2023-05-23T08:29:51;5.65;;;3.72;;
63046;SDS011;62025;39.238;9.126;2023-05-23T08:32:17;5.55;;;3.90;;
63046;SDS011;62025;39.238;9.126;2023-05-23T08:34:43;5.63;;;3.90;;
63046;SDS011;62025;39.238;9.126;2023-05-23T08:37:09;4.28;;;3.65;;
63046;SDS011;62025;39.238;9.126;2023-05-23T08:39:36;5.10;;;3.70;;
63046;SDS011;62025;39.238;9.126;2023-05-23T08:42:22;4.55;;;3.92;;
63046;SDS011;62025;39.238;9.126;2023-05-23T08:44:49;7.88;;;3.85;;
63046;SDS011;62025;39.238;9.126;2023-05-23T08:47:15;7.00;;;4.10;;
63046;SDS011;62025;39.238;9.126;2023-05-23T08:49:49;4.15;;;3.50;;
63046;SDS011;62025;39.238;9.126;2023-05-23T08:52:20;5.82;;;3.42;;
63046;SDS011;62025;39.238;9.126;2023-05-23T08:54:52;7.20;;;3.63;;
63046;SDS011;62025;39.238;9.126;2023-05-23T08:57:18;7.25;;;3.45;;
63046;SDS011;62025;39.238;9.126;2023-05-23T08:59:50;4.45;;;3.63;;
63046;SDS011;62025;39.238;9.126;2023-05-23T09:02:18;3.72;;;3.40;;
63046;SDS011;62025;39.238;9.126;2023-05-23T09:04:47;4.60;;;3.20;;
63046;SDS011;62025;39.238;9.126;2023-05-23T09:07:18;3.67;;;3.28;;
63046;SDS011;62025;39.238;9.126;2023-05-23T09:09:45;8.90;;;3.53;;
63046;SDS011;62025;39.238;9.126;2023-05-23T09:12:13;4.43;;;3.42;;
63046;SDS011;62025;39.238;9.126;2023-05-23T09:14:41;5.03;;;3.20;;
63046;SDS011;62025;39.238;9.126;2023-05-23T09:17:10;6.50;;;3.33;;
63046;SDS011;62025;39.238;9.126;2023-05-23T09:19:40;5.93;;;3.30;;
63046;SDS011;62025;39.238;9.126;2023-05-23T09:22:33;5.50;;;3.40;;
63046;SDS011;62025;39.238;9.126;2023-05-23T09:25:05;9.00;;;3.50;;
63046;SDS011;62025;39.238;9.126;2023-05-23T09:27:33;5.50;;;3.33;;
63046;SDS011;62025;39.238;9.126;2023-05-23T09:30:07;3.60;;;3.15;;
63046;SDS011;62025;39.238;9.126;2023-05-23T09:32:35;6.30;;;3.28;;
63046;SDS011;62025;39.238;9.126;2023-05-23T09:35:06;4.07;;;3.50;;
63046;SDS011;62025;39.238;9.126;2023-05-23T09:37:38;5.80;;;3.53;;
63046;SDS011;62025;39.238;9.126;2023-05-23T09:40:13;5.45;;;3.40;;
63046;SDS011;62025;39.238;9.126;2023-05-23T09:42:51;3.97;;;3.58;;
63046;SDS011;62025;39.238;9.126;2023-05-23T09:45:17;4.25;;;3.35;;
63046;SDS011;62025;39.238;9.126;2023-05-23T09:47:49;7.22;;;5.53;;
63046;SDS011;62025;39.238;9.126;2023-05-23T09:50:16;9.75;;;5.55;;
63046;SDS011;62025;39.238;9.126;2023-05-23T09:52:43;12.23;;;9.00;;
63046;SDS011;62025;39.238;9.126;2023-05-23T09:55:10;18.58;;;13.80;;
63046;SDS011;62025;39.238;9.126;2023-05-23T09:57:39;15.52;;;10.63;;
63046;SDS011;62025;39.238;9.126;2023-05-23T10:00:07;14.55;;;12.07;;
63046;SDS011;62025;39.238;9.126;2023-05-23T10:08:26;5.65;;;3.70;;
63046;SDS011;62025;39.238;9.126;2023-05-23T10:13:46;5.35;;;3.10;;
63046;SDS011;62025;39.238;9.126;2023-05-23T10:16:18;8.40;;;3.05;;
63046;SDS011;62025;39.238;9.126;2023-05-23T10:18:57;5.90;;;3.70;;
63046;SDS011;62025;39.238;9.126;2023-05-23T10:21:39;5.95;;;3.90;;
63046;SDS011;62025;39.238;9.126;2023-05-23T10:24:10;6.15;;;4.10;;
63046;SDS011;62025;39.238;9.126;2023-05-23T10:29:05;6.82;;;4.53;;
63046;SDS011;62025;39.238;9.126;2023-05-23T10:31:31;7.65;;;4.28;;
63046;SDS011;62025;39.238;9.126;2023-05-23T10:37:04;7.57;;;3.60;;
63046;SDS011;62025;39.238;9.126;2023-05-23T10:39:45;7.57;;;3.40;;
63046;SDS011;62025;39.238;9.126;2023-05-23T10:45:21;4.70;;;3.33;;
63046;SDS011;62025;39.238;9.126;2023-05-23T10:47:51;5.40;;;3.20;;
63046;SDS011;62025;39.238;9.126;2023-05-23T10:50:34;5.22;;;3.10;;
63046;SDS011;62025;39.238;9.126;2023-05-23T10:53:05;6.47;;;3.10;;
63046;SDS011;62025;39.238;9.126;2023-05-23T10:55:34;5.90;;;3.50;;
63046;SDS011;62025;39.238;9.126;2023-05-23T11:01:00;8.30;;;3.80;;
63046;SDS011;62025;39.238;9.126;2023-05-23T11:03:31;9.85;;;3.60;;
63046;SDS011;62025;39.238;9.126;2023-05-23T11:06:27;6.05;;;2.90;;
63046;SDS011;62025;39.238;9.126;2023-05-23T11:11:59;7.85;;;3.40;;
63046;SDS011;62025;39.238;9.126;2023-05-23T11:16:59;6.57;;;3.10;;
63046;SDS011;62025;39.238;9.126;2023-05-23T11:22:33;12.23;;;3.42;;
63046;SDS011;62025;39.238;9.126;2023-05-23T11:25:00;8.68;;;3.15;;
63046;SDS011;62025;39.238;9.126;2023-05-23T11:27:36;6.00;;;3.40;;
63046;SDS011;62025;39.238;9.126;2023-05-23T11:32:40;8.38;;;3.65;;
63046;SDS011;62025;39.238;9.126;2023-05-23T11:35:08;8.80;;;3.60;;
63046;SDS011;62025;39.238;9.126;2023-05-23T11:37:37;6.68;;;3.17;;
63046;SDS011;62025;39.238;9.126;2023-05-23T11:42:53;5.35;;;3.38;;
63046;SDS011;62025;39.238;9.126;2023-05-23T11:45:20;8.45;;;3.10;;
63046;SDS011;62025;39.238;9.126;2023-05-23T11:47:50;8.63;;;3.67;;
63046;SDS011;62025;39.238;9.126;2023-05-23T11:50:17;9.95;;;3.53;;
63046;SDS011;62025;39.238;9.126;2023-05-23T11:52:45;8.02;;;3.45;;
63046;SDS011;62025;39.238;9.126;2023-05-23T11:55:22;10.52;;;3.30;;
63046;SDS011;62025;39.238;9.126;2023-05-23T11:57:48;7.93;;;3.30;;
63046;SDS011;62025;39.238;9.126;2023-05-23T12:00:16;7.13;;;2.80;;
63046;SDS011;62025;39.238;9.126;2023-05-23T12:02:43;9.57;;;3.85;;
63046;SDS011;62025;39.238;9.126;2023-05-23T12:05:13;8.98;;;3.40;;
63046;SDS011;62025;39.238;9.126;2023-05-23T12:07:40;6.15;;;3.03;;
63046;SDS011;62025;39.238;9.126;2023-05-23T12:10:11;6.68;;;3.17;;
63046;SDS011;62025;39.238;9.126;2023-05-23T12:12:40;6.80;;;3.50;;
63046;SDS011;62025;39.238;9.126;2023-05-23T12:15:10;9.75;;;3.50;;
63046;SDS011;62025;39.238;9.126;2023-05-23T12:17:38;6.68;;;3.33;;
63046;SDS011;62025;39.238;9.126;2023-05-23T12:20:11;6.78;;;3.22;;
63046;SDS011;62025;39.238;9.126;2023-05-23T12:22:38;8.77;;;4.72;;
63046;SDS011;62025;39.238;9.126;2023-05-23T12:25:06;6.72;;;3.22;;
63046;SDS011;62025;39.238;9.126;2023-05-23T12:27:34;8.73;;;3.58;;
63046;SDS011;62025;39.238;9.126;2023-05-23T12:30:14;7.05;;;3.38;;
63046;SDS011;62025;39.238;9.126;2023-05-23T12:32:42;7.18;;;3.42;;
63046;SDS011;62025;39.238;9.126;2023-05-23T12:40:16;6.45;;;3.78;;
63046;SDS011;62025;39.238;9.126;2023-05-23T12:42:55;4.30;;;2.95;;
63046;SDS011;62025;39.238;9.126;2023-05-23T12:47:58;5.45;;;2.90;;
63046;SDS011;62025;39.238;9.126;2023-05-23T12:50:26;4.53;;;2.67;;
63046;SDS011;62025;39.238;9.126;2023-05-23T12:52:51;7.72;;;3.40;;
63046;SDS011;62025;39.238;9.126;2023-05-23T12:55:17;7.15;;;3.58;;
63046;SDS011;62025;39.238;9.126;2023-05-23T12:57:43;6.13;;;3.30;;
63046;SDS011;62025;39.238;9.126;2023-05-23T13:00:10;7.43;;;3.28;;
63046;SDS011;62025;39.238;9.126;2023-05-23T13:02:37;4.97;;;3.03;;
63046;SDS011;62025;39.238;9.126;2023-05-23T13:05:04;6.80;;;2.95;;
63046;SDS011;62025;39.238;9.126;2023-05-23T13:07:30;7.18;;;3.60;;
63046;SDS011;62025;39.238;9.126;2023-05-23T13:09:57;5.22;;;3.13;;
63046;SDS011;62025;39.238;9.126;2023-05-23T13:12:22;9.35;;;3.55;;
63046;SDS011;62025;39.238;9.126;2023-05-23T13:14:49;6.07;;;3.38;;
63046;SDS011;62025;39.238;9.126;2023-05-23T13:17:15;5.90;;;3.03;;
63046;SDS011;62025;39.238;9.126;2023-05-23T13:19:41;8.27;;;3.90;;
63046;SDS011;62025;39.238;9.126;2023-05-23T13:22:07;6.70;;;3.42;;
63046;SDS011;62025;39.238;9.126;2023-05-23T13:24:38;6.57;;;3.90;;
63046;SDS011;62025;39.238;9.126;2023-05-23T13:27:05;5.82;;;3.20;;
63046;SDS011;62025;39.238;9.126;2023-05-23T13:29:32;11.85;;;3.78;;
63046;SDS011;62025;39.238;9.126;2023-05-23T13:31:58;5.80;;;3.65;;
63046;SDS011;62025;39.238;9.126;2023-05-23T13:34:25;6.93;;;3.78;;
63046;SDS011;62025;39.238;9.126;2023-05-23T13:36:52;8.68;;;3.75;;
63046;SDS011;62025;39.238;9.126;2023-05-23T13:39:19;6.35;;;4.05;;
63046;SDS011;62025;39.238;9.126;2023-05-23T13:41:47;7.93;;;3.70;;
63046;SDS011;62025;39.238;9.126;2023-05-23T13:44:14;6.63;;;3.70;;
63046;SDS011;62025;39.238;9.126;2023-05-23T13:46:41;6.70;;;4.07;;
63046;SDS011;62025;39.238;9.126;2023-05-23T13:49:07;8.68;;;5.03;;
63046;SDS011;62025;39.238;9.126;2023-05-23T13:51:33;7.20;;;3.88;;
63046;SDS011;62025;39.238;9.126;2023-05-23T13:54:01;8.47;;;3.70;;
63046;SDS011;62025;39.238;9.126;2023-05-23T13:56:29;11.57;;;3.93;;
63046;SDS011;62025;39.238;9.126;2023-05-23T13:58:54;8.07;;;4.35;;
63046;SDS011;62025;39.238;9.126;2023-05-23T14:01:20;7.82;;;4.07;;
63046;SDS011;62025;39.238;9.126;2023-05-23T14:03:46;9.13;;;3.70;;
63046;SDS011;62025;39.238;9.126;2023-05-23T14:06:12;6.55;;;3.65;;
63046;SDS011;62025;39.238;9.126;2023-05-23T14:08:38;8.82;;;3.53;;
63046;SDS011;62025;39.238;9.126;2023-05-23T14:11:04;7.72;;;3.80;;
63046;SDS011;62025;39.238;9.126;2023-05-23T14:13:30;7.13;;;3.65;;
63046;SDS011;62025;39.238;9.126;2023-05-23T14:15:57;7.18;;;3.45;;
63046;SDS011;62025;39.238;9.126;2023-05-23T14:18:22;6.78;;;3.75;;
63046;SDS011;62025;39.238;9.126;2023-05-23T14:20:48;4.55;;;3.30;;
63046;SDS011;62025;39.238;9.126;2023-05-23T14:23:14;6.22;;;3.10;;
63046;SDS011;62025;39.238;9.126;2023-05-23T14:25:40;6.40;;;3.15;;
63046;SDS011;62025;39.238;9.126;2023-05-23T14:28:07;6.05;;;3.47;;
63046;SDS011;62025;39.238;9.126;2023-05-23T14:30:33;9.15;;;3.80;;
63046;SDS011;62025;39.238;9.126;2023-05-23T14:32:59;8.88;;;3.85;;
63046;SDS011;62025;39.238;9.126;2023-05-23T14:35:25;9.88;;;3.33;;
63046;SDS011;62025;39.238;9.126;2023-05-23T14:37:53;7.18;;;4.13;;
63046;SDS011;62025;39.238;9.126;2023-05-23T14:40:19;8.32;;;3.90;;
63046;SDS011;62025;39.238;9.126;2023-05-23T14:42:45;8.20;;;4.00;;
63046;SDS011;62025;39.238;9.126;2023-05-23T14:45:11;6.47;;;3.47;;
63046;SDS011;62025;39.238;9.126;2023-05-23T14:47:37;6.15;;;3.20;;
63046;SDS011;62025;39.238;9.126;2023-05-23T14:50:03;6.75;;;3.47;;
63046;SDS011;62025;39.238;9.126;2023-05-23T14:52:30;7.75;;;3.75;;
63046;SDS011;62025;39.238;9.126;2023-05-23T14:54:56;10.55;;;4.03;;
63046;SDS011;62025;39.238;9.126;2023-05-23T14:57:22;8.43;;;3.35;;
63046;SDS011;62025;39.238;9.126;2023-05-23T14:59:48;5.90;;;3.80;;
63046;SDS011;62025;39.238;9.126;2023-05-23T15:02:14;8.05;;;3.45;;
63046;SDS011;62025;39.238;9.126;2023-05-23T15:04:40;9.18;;;3.50;;
63046;SDS011;62025;39.238;9.126;2023-05-23T15:07:06;7.40;;;3.40;;
63046;SDS011;62025;39.238;9.126;2023-05-23T15:09:33;5.60;;;3.13;;
63046;SDS011;62025;39.238;9.126;2023-05-23T15:11:58;6.68;;;3.65;;
63046;SDS011;62025;39.238;9.126;2023-05-23T15:14:25;8.48;;;3.53;;
63046;SDS011;62025;39.238;9.126;2023-05-23T15:16:54;11.63;;;3.65;;
63046;SDS011;62025;39.238;9.126;2023-05-23T15:19:20;7.22;;;3.58;;
63046;SDS011;62025;39.238;9.126;2023-05-23T15:21:46;7.18;;;3.70;;
63046;SDS011;62025;39.238;9.126;2023-05-23T15:24:12;11.50;;;3.75;;
63046;SDS011;62025;39.238;9.126;2023-05-23T15:26:38;6.15;;;3.60;;
63046;SDS011;62025;39.238;9.126;2023-05-23T15:29:05;7.35;;;3.90;;
63046;SDS011;62025;39.238;9.126;2023-05-23T15:31:31;8.80;;;3.75;;
63046;SDS011;62025;39.238;9.126;2023-05-23T15:33:57;6.18;;;3.33;;
63046;SDS011;62025;39.238;9.126;2023-05-23T15:36:23;7.15;;;3.67;;
63046;SDS011;62025;39.238;9.126;2023-05-23T15:38:49;5.88;;;3.60;;
63046;SDS011;62025;39.238;9.126;2023-05-23T15:41:15;9.02;;;3.75;;
63046;SDS011;62025;39.238;9.126;2023-05-23T15:43:42;6.63;;;3.80;;
63046;SDS011;62025;39.238;9.126;2023-05-23T15:46:08;9.57;;;3.65;;
63046;SDS011;62025;39.238;9.126;2023-05-23T15:48:33;5.28;;;3.53;;
63046;SDS011;62025;39.238;9.126;2023-05-23T15:50:59;7.78;;;3.72;;
63046;SDS011;62025;39.238;9.126;2023-05-23T15:53:25;7.85;;;3.42;;
63046;SDS011;62025;39.238;9.126;2023-05-23T15:55:51;8.45;;;3.55;;